Time;durP1;ratioP1;P1;durP2;ratioP2;P2;SDS_P1;SDS_P2;PMS_P1;PMS_P2;Temp;Humidity;BMP_temperature;BMP_pressure;BME280_temperature;BME280_humidity;BME280_pressure;Samples;Min_cycle;Max_cycle;Signal;HPM_P1;HPM_P2
2021/08/05 00:02:21;;;;;;;1.98;1.85;;;16.20;99.90;;;;;;4986796;28;20264;-69
2021/08/05 00:04:46;;;;;;;2.10;1.77;;;16.10;99.90;;;;;;4995403;28;20184;-69
2021/08/05 00:07:13;;;;;;;1.85;1.75;;;16.00;99.90;;;;;;4998193;28;20330;-69
2021/08/05 00:09:43;;;;;;;2.50;2.10;;;15.90;99.90;;;;;;4988902;28;20185;-69
2021/08/05 00:12:13;;;;;;;2.85;2.15;;;15.80;99.90;;;;;;4994981;28;20183;-69
2021/08/05 00:14:39;;;;;;;2.05;1.85;;;15.70;99.90;;;;;;4993795;28;20214;-68
2021/08/05 00:17:05;;;;;;;2.75;1.90;;;15.70;99.90;;;;;;4992442;28;20204;-69
2021/08/05 00:19:31;;;;;;;1.80;1.70;;;15.60;99.90;;;;;;4989773;28;20183;-69
2021/08/05 00:21:56;;;;;;;1.88;1.73;;;15.60;99.90;;;;;;4994626;28;20533;-68
2021/08/05 00:24:22;;;;;;;1.70;1.60;;;15.70;99.90;;;;;;4991237;28;20191;-69
2021/08/05 00:26:47;;;;;;;2.17;1.98;;;15.60;99.90;;;;;;4995755;28;20223;-69
2021/08/05 00:29:13;;;;;;;3.00;1.95;;;15.60;99.90;;;;;;4989243;28;20185;-69
2021/08/05 00:31:39;;;;;;;4.78;2.20;;;15.50;99.90;;;;;;4988929;28;20184;-69
2021/08/05 00:34:04;;;;;;;2.00;1.70;;;15.40;99.90;;;;;;4992382;28;20188;-70
2021/08/05 00:36:30;;;;;;;2.05;1.85;;;15.30;99.90;;;;;;4991528;28;20702;-68
2021/08/05 00:38:55;;;;;;;2.30;1.92;;;15.30;99.90;;;;;;4992541;28;20246;-67
2021/08/05 00:41:21;;;;;;;2.38;2.17;;;15.30;99.90;;;;;;4993296;28;20213;-68
2021/08/05 00:43:47;;;;;;;2.00;1.88;;;15.30;99.90;;;;;;4993898;28;20195;-69
2021/08/05 00:46:12;;;;;;;2.20;2.00;;;15.40;99.90;;;;;;4970365;28;20222;-69
2021/08/05 00:48:38;;;;;;;2.30;2.10;;;15.50;99.90;;;;;;4994222;28;20234;-68
2021/08/05 00:51:04;;;;;;;2.20;2.00;;;15.50;99.90;;;;;;4988453;28;20184;-70
2021/08/05 00:53:29;;;;;;;2.20;2.00;;;15.40;99.90;;;;;;4991038;28;20187;-68
2021/08/05 00:55:55;;;;;;;2.35;2.10;;;15.50;99.90;;;;;;4970815;28;20206;-67
2021/08/05 00:58:21;;;;;;;2.30;1.92;;;15.40;99.90;;;;;;4995937;28;20184;-68
2021/08/05 01:00:56;;;;;;;2.30;2.03;;;15.40;99.90;;;;;;4994775;28;20182;-69
2021/08/05 01:03:28;;;;;;;2.05;1.85;;;15.20;99.90;;;;;;5002229;28;20580;-69
2021/08/05 01:06:09;;;;;;;2.40;2.20;;;15.20;99.90;;;;;;4994759;28;20295;-68
2021/08/05 01:08:38;;;;;;;2.13;1.80;;;15.20;99.90;;;;;;4993997;28;20674;-69
2021/08/05 01:11:14;;;;;;;3.20;1.95;;;15.40;99.90;;;;;;4991159;28;20195;-69
2021/08/05 01:13:54;;;;;;;2.92;2.30;;;15.40;99.90;;;;;;4985402;28;20180;-67
2021/08/05 01:16:24;;;;;;;2.80;2.50;;;15.30;99.90;;;;;;4998036;28;20217;-68
2021/08/05 01:18:52;;;;;;;2.30;2.10;;;15.20;99.90;;;;;;4993751;28;20187;-68
2021/08/05 01:21:44;;;;;;;2.33;2.13;;;15.00;99.90;;;;;;4990981;28;20192;-69
2021/08/05 01:24:13;;;;;;;2.75;2.55;;;15.00;99.90;;;;;;4979336;28;20529;-68
2021/08/05 01:26:48;;;;;;;2.55;2.35;;;14.90;99.90;;;;;;4992697;28;20208;-69
2021/08/05 01:29:17;;;;;;;1.83;1.73;;;14.80;99.90;;;;;;4990073;28;20180;-69
2021/08/05 01:31:44;;;;;;;3.17;2.42;;;14.80;99.90;;;;;;4994709;28;20282;-68
2021/08/05 01:34:15;;;;;;;2.60;2.40;;;14.80;99.90;;;;;;4993701;28;20318;-68
2021/08/05 01:36:48;;;;;;;2.30;2.10;;;14.80;99.90;;;;;;4988543;28;20204;-68
2021/08/05 01:39:14;;;;;;;2.60;2.40;;;14.70;99.90;;;;;;4994369;28;20207;-68
2021/08/05 01:41:41;;;;;;;2.45;2.10;;;14.60;99.90;;;;;;4994615;28;20212;-69
2021/08/05 01:44:10;;;;;;;3.00;2.70;;;14.60;99.90;;;;;;4991616;28;20660;-68
2021/08/05 01:46:37;;;;;;;2.22;2.03;;;14.60;99.90;;;;;;4967490;28;20216;-68
2021/08/05 01:49:03;;;;;;;3.80;2.53;;;14.50;99.90;;;;;;4972423;28;20187;-69
2021/08/05 01:51:30;;;;;;;2.60;2.40;;;14.40;99.90;;;;;;4987298;28;20222;-69
2021/08/05 01:53:56;;;;;;;2.30;2.10;;;14.30;99.90;;;;;;5002528;28;20651;-69
2021/08/05 01:56:23;;;;;;;2.65;2.17;;;14.30;99.90;;;;;;4988271;28;20210;-68
2021/08/05 01:58:50;;;;;;;2.90;2.30;;;14.20;99.90;;;;;;4988333;28;20365;-68
2021/08/05 02:01:19;;;;;;;2.78;2.22;;;14.20;99.90;;;;;;4987343;28;20188;-69
2021/08/05 02:04:23;;;;;;;3.67;2.30;;;14.20;99.90;;;;;;4990065;28;20249;-69
2021/08/05 02:07:02;;;;;;;2.40;2.20;;;14.30;99.90;;;;;;4989383;28;20330;-69
2021/08/05 02:09:32;;;;;;;2.83;2.63;;;14.30;99.90;;;;;;4989671;28;20180;-68
2021/08/05 02:11:58;;;;;;;2.58;2.35;;;14.30;99.90;;;;;;4988434;28;20262;-69
2021/08/05 02:14:26;;;;;;;2.90;2.58;;;14.30;99.90;;;;;;4995766;28;20258;-68
2021/08/05 02:16:53;;;;;;;2.70;2.47;;;14.50;99.90;;;;;;4986914;28;20219;-68
2021/08/05 02:19:20;;;;;;;2.10;1.92;;;14.40;99.90;;;;;;4994016;28;20647;-69
2021/08/05 02:21:46;;;;;;;2.53;2.22;;;14.40;99.90;;;;;;4992486;28;20625;-69
2021/08/05 02:24:16;;;;;;;3.30;2.70;;;14.50;99.90;;;;;;4996531;28;20688;-67
2021/08/05 02:26:41;;;;;;;2.30;2.08;;;14.40;99.90;;;;;;4996130;28;20270;-68
2021/08/05 02:29:08;;;;;;;3.00;2.70;;;14.40;99.90;;;;;;4998130;28;20210;-69
2021/08/05 02:31:37;;;;;;;2.38;2.17;;;14.40;99.90;;;;;;4995513;28;21148;-69
2021/08/05 02:34:06;;;;;;;3.47;2.25;;;14.30;99.90;;;;;;4999406;28;20176;-68
2021/08/05 02:36:32;;;;;;;2.70;2.50;;;14.30;99.90;;;;;;4995211;28;20204;-69
2021/08/05 02:38:57;;;;;;;2.85;2.60;;;14.30;99.90;;;;;;4990367;28;20181;-69
2021/08/05 02:41:24;;;;;;;3.10;2.70;;;14.40;99.90;;;;;;4982810;28;20199;-69
2021/08/05 02:43:51;;;;;;;3.65;2.97;;;14.50;99.90;;;;;;4998585;28;20271;-68
2021/08/05 02:46:17;;;;;;;3.25;2.95;;;14.40;99.90;;;;;;5003756;28;20218;-69
2021/08/05 02:48:45;;;;;;;2.97;2.60;;;14.40;99.90;;;;;;5002121;28;20179;-68
2021/08/05 02:51:11;;;;;;;4.38;2.88;;;14.30;99.90;;;;;;4999446;28;20212;-68
2021/08/05 02:53:37;;;;;;;2.95;2.35;;;14.20;99.90;;;;;;4994284;28;20180;-69
2021/08/05 02:56:03;;;;;;;3.00;2.70;;;14.20;99.90;;;;;;4999535;28;20196;-69
2021/08/05 02:58:29;;;;;;;2.80;2.60;;;14.20;99.90;;;;;;4992112;28;20687;-69
2021/08/05 03:00:55;;;;;;;2.95;2.65;;;14.10;99.90;;;;;;4994824;28;20180;-69
2021/08/05 03:03:22;;;;;;;3.30;2.90;;;13.80;99.90;;;;;;4995944;28;20184;-68
2021/08/05 03:05:51;;;;;;;2.80;2.60;;;13.70;99.90;;;;;;4995909;28;20215;-68
2021/08/05 03:08:16;;;;;;;3.50;3.20;;;13.60;99.90;;;;;;4999854;28;20518;-69
2021/08/05 03:10:42;;;;;;;2.75;2.55;;;13.50;99.90;;;;;;4997466;28;20184;-68
2021/08/05 03:13:08;;;;;;;3.30;2.85;;;13.60;99.90;;;;;;4999158;28;20193;-68
2021/08/05 03:15:33;;;;;;;3.20;2.90;;;13.80;99.90;;;;;;4989255;28;20299;-68
2021/08/05 03:17:59;;;;;;;2.72;2.28;;;13.80;99.90;;;;;;5000503;28;20180;-69
2021/08/05 03:20:25;;;;;;;3.42;2.78;;;13.70;99.90;;;;;;4998489;28;20191;-69
2021/08/05 03:22:50;;;;;;;3.40;2.60;;;13.60;99.90;;;;;;4996365;28;20180;-69
2021/08/05 03:25:16;;;;;;;4.40;2.90;;;13.70;99.90;;;;;;4996186;28;20668;-69
2021/08/05 03:27:42;;;;;;;2.63;2.42;;;13.80;99.90;;;;;;4991385;28;21001;-68
2021/08/05 03:30:10;;;;;;;3.15;2.85;;;13.90;99.90;;;;;;4975657;28;20628;-68
2021/08/05 03:32:36;;;;;;;2.92;2.58;;;13.90;99.90;;;;;;4999769;28;20722;-68
2021/08/05 03:35:02;;;;;;;3.08;2.75;;;13.90;99.90;;;;;;4990193;28;20282;-68
2021/08/05 03:37:28;;;;;;;2.88;2.58;;;13.90;99.90;;;;;;4988578;28;20299;-67
2021/08/05 03:39:53;;;;;;;6.07;2.75;;;14.00;99.90;;;;;;4995086;28;20275;-69
2021/08/05 03:42:19;;;;;;;4.10;3.35;;;14.00;99.90;;;;;;4997800;28;20246;-68
2021/08/05 03:44:45;;;;;;;4.25;2.90;;;14.10;99.90;;;;;;4975888;28;20230;-68
2021/08/05 03:47:10;;;;;;;3.58;3.25;;;14.10;99.90;;;;;;4991275;28;20758;-69
2021/08/05 03:49:36;;;;;;;2.95;2.70;;;14.10;99.90;;;;;;4987383;28;20190;-69
2021/08/05 03:52:02;;;;;;;3.17;2.80;;;14.00;99.90;;;;;;4989665;28;20192;-68
2021/08/05 03:54:27;;;;;;;3.30;3.00;;;14.10;99.90;;;;;;4996089;28;20651;-69
2021/08/05 03:56:53;;;;;;;3.42;3.13;;;14.10;99.90;;;;;;4996344;28;20253;-69
2021/08/05 03:59:18;;;;;;;3.53;3.20;;;14.10;99.90;;;;;;4996540;28;20196;-68
2021/08/05 04:01:44;;;;;;;3.92;3.03;;;14.10;99.90;;;;;;4978462;28;20727;-68
2021/08/05 04:04:10;;;;;;;2.50;2.30;;;14.20;99.90;;;;;;4986892;28;20184;-69
2021/08/05 04:06:35;;;;;;;2.88;2.67;;;14.20;99.90;;;;;;4996779;28;20710;-69
2021/08/05 04:09:01;;;;;;;2.85;2.47;;;14.20;99.90;;;;;;4993631;28;20258;-68
2021/08/05 04:11:27;;;;;;;2.88;2.58;;;14.20;99.90;;;;;;4991539;28;20219;-69
2021/08/05 04:13:52;;;;;;;4.38;2.90;;;14.20;99.90;;;;;;4992952;28;20181;-69
2021/08/05 04:16:18;;;;;;;3.33;2.67;;;14.20;99.90;;;;;;4988729;28;20220;-68
2021/08/05 04:18:44;;;;;;;2.88;2.60;;;14.30;99.90;;;;;;4987351;28;20517;-68
2021/08/05 04:21:09;;;;;;;3.05;2.72;;;14.40;99.90;;;;;;4993188;28;20179;-69
2021/08/05 04:23:35;;;;;;;2.97;2.60;;;14.50;99.90;;;;;;4970914;28;20192;-68
2021/08/05 04:26:01;;;;;;;3.15;2.85;;;14.60;99.90;;;;;;4991320;28;20286;-69
2021/08/05 04:28:26;;;;;;;2.58;2.38;;;14.80;99.90;;;;;;4988087;28;20188;-69
2021/08/05 04:30:53;;;;;;;3.20;2.88;;;14.90;99.90;;;;;;4993900;28;20184;-68
2021/08/05 04:33:19;;;;;;;3.83;3.10;;;15.00;99.90;;;;;;5001199;28;20218;-68
2021/08/05 04:35:45;;;;;;;3.22;2.75;;;14.90;99.90;;;;;;4988923;28;20705;-69
2021/08/05 04:38:12;;;;;;;2.50;2.30;;;14.80;99.90;;;;;;4983864;28;20188;-68
2021/08/05 04:40:38;;;;;;;3.28;2.97;;;15.00;99.90;;;;;;4996265;28;20656;-68
2021/08/05 04:43:03;;;;;;;3.33;2.92;;;15.10;99.90;;;;;;4989471;28;20192;-69
2021/08/05 04:45:29;;;;;;;2.88;2.58;;;15.10;99.90;;;;;;4971469;28;20385;-68
2021/08/05 04:48:04;;;;;;;3.78;3.05;;;15.10;99.90;;;;;;4987681;28;20594;-69
2021/08/05 04:50:33;;;;;;;3.80;3.35;;;15.10;99.90;;;;;;4999331;28;20551;-69
2021/08/05 04:52:59;;;;;;;3.92;3.03;;;15.20;99.90;;;;;;4989705;28;20191;-69
2021/08/05 04:55:26;;;;;;;3.78;2.85;;;15.10;99.90;;;;;;4995432;28;20187;-67
2021/08/05 04:57:53;;;;;;;4.15;2.88;;;15.20;99.90;;;;;;4993091;28;20188;-69
2021/08/05 05:00:34;;;;;;;4.00;3.47;;;15.30;99.90;;;;;;4991085;28;20532;-69
2021/08/05 05:03:01;;;;;;;3.45;3.03;;;15.30;99.90;;;;;;4984907;28;20663;-68
2021/08/05 05:05:28;;;;;;;3.67;3.17;;;15.40;99.90;;;;;;4993900;28;20188;-68
2021/08/05 05:07:54;;;;;;;3.78;3.22;;;15.50;99.90;;;;;;4996095;28;20180;-69
2021/08/05 05:10:21;;;;;;;7.18;3.50;;;15.70;99.90;;;;;;4996268;28;20191;-69
2021/08/05 05:12:48;;;;;;;3.85;2.85;;;15.90;99.90;;;;;;4992561;28;20233;-69
2021/08/05 05:15:14;;;;;;;3.05;2.75;;;16.00;99.90;;;;;;4993211;28;20326;-68
2021/08/05 05:17:42;;;;;;;2.92;2.45;;;16.10;99.90;;;;;;4993278;28;20226;-68
2021/08/05 05:20:09;;;;;;;2.97;2.67;;;16.20;99.90;;;;;;4994656;28;20191;-68
2021/08/05 05:22:50;;;;;;;3.58;3.28;;;16.30;99.90;;;;;;4993919;28;20294;-68
2021/08/05 05:25:16;;;;;;;3.85;3.28;;;16.40;99.90;;;;;;4990095;28;20196;-67
2021/08/05 05:27:42;;;;;;;3.58;3.05;;;16.50;99.90;;;;;;4992431;28;20554;-67
2021/08/05 05:30:09;;;;;;;8.38;2.80;;;16.60;99.90;;;;;;4991337;28;20211;-67
2021/08/05 05:32:36;;;;;;;5.55;3.42;;;16.60;99.90;;;;;;4993916;28;20184;-68
2021/08/05 05:35:03;;;;;;;7.80;3.97;;;16.60;99.90;;;;;;4986381;28;20547;-68
2021/08/05 05:37:29;;;;;;;4.15;3.60;;;16.50;99.90;;;;;;4988145;28;20770;-67
2021/08/05 05:39:56;;;;;;;5.30;4.05;;;16.50;99.90;;;;;;4988539;28;20194;-68
2021/08/05 05:42:23;;;;;;;5.25;4.10;;;16.40;99.90;;;;;;4995054;28;20685;-67
2021/08/05 05:44:49;;;;;;;5.35;4.30;;;16.40;99.90;;;;;;4985518;28;20188;-67
2021/08/05 05:47:15;;;;;;;4.03;3.63;;;16.60;99.90;;;;;;4991552;28;20211;-67
2021/08/05 05:49:41;;;;;;;4.07;3.63;;;16.70;99.90;;;;;;4994695;28;20199;-68
2021/08/05 05:52:07;;;;;;;3.80;3.40;;;16.80;99.90;;;;;;4991353;28;20195;-67
2021/08/05 05:54:33;;;;;;;4.10;3.70;;;16.90;99.90;;;;;;4995749;28;20546;-68
2021/08/05 05:56:59;;;;;;;4.22;3.83;;;16.90;99.90;;;;;;4998884;28;20750;-68
2021/08/05 05:59:24;;;;;;;4.63;3.63;;;16.80;99.90;;;;;;4997630;28;20267;-67
2021/08/05 06:01:50;;;;;;;5.40;3.95;;;16.80;99.90;;;;;;4986151;28;20211;-68
2021/08/05 06:04:16;;;;;;;7.57;4.43;;;16.80;99.90;;;;;;4993963;28;20200;-66
2021/08/05 06:06:41;;;;;;;9.63;4.57;;;17.00;99.90;;;;;;4990661;28;20242;-68
2021/08/05 06:09:07;;;;;;;10.32;4.85;;;17.00;99.90;;;;;;4995727;28;20206;-67
2021/08/05 06:11:33;;;;;;;5.35;3.65;;;17.10;99.90;;;;;;4988965;28;20215;-68
2021/08/05 06:13:58;;;;;;;5.07;3.63;;;17.00;99.90;;;;;;4993244;28;21457;-67
2021/08/05 06:16:24;;;;;;;13.13;4.55;;;17.20;99.90;;;;;;4993333;28;21341;-68
2021/08/05 06:18:50;;;;;;;17.60;5.15;;;17.30;99.90;;;;;;4990690;28;20553;-67
2021/08/05 06:21:16;;;;;;;4.65;3.33;;;17.40;99.90;;;;;;4991354;28;20207;-68
2021/08/05 06:23:42;;;;;;;7.57;3.80;;;17.40;99.90;;;;;;4991645;28;20280;-68
2021/08/05 06:26:08;;;;;;;5.15;3.40;;;17.60;99.90;;;;;;4994484;28;20234;-68
2021/08/05 06:28:34;;;;;;;6.05;4.00;;;17.60;99.90;;;;;;4991564;28;20190;-68
2021/08/05 06:31:00;;;;;;;5.68;3.45;;;17.70;99.90;;;;;;4988293;28;20179;-68
2021/08/05 06:33:26;;;;;;;4.75;3.45;;;17.80;99.90;;;;;;4995150;28;20184;-68
2021/08/05 06:35:52;;;;;;;6.50;3.33;;;17.90;99.90;;;;;;4992737;28;20278;-67
2021/08/05 06:38:18;;;;;;;8.32;4.18;;;18.10;99.90;;;;;;4995677;28;20188;-67
2021/08/05 06:40:44;;;;;;;3.45;3.13;;;18.20;99.90;;;;;;4994539;28;20203;-68
2021/08/05 06:43:09;;;;;;;3.85;3.30;;;18.30;99.90;;;;;;4994912;28;20188;-67
2021/08/05 06:45:35;;;;;;;3.55;3.08;;;18.30;99.90;;;;;;4994990;28;20235;-67
2021/08/05 06:48:01;;;;;;;9.25;4.50;;;18.40;99.90;;;;;;4993592;28;20188;-68
2021/08/05 06:50:27;;;;;;;6.63;4.28;;;18.40;99.90;;;;;;4994541;28;20184;-67
2021/08/05 06:52:53;;;;;;;6.15;4.03;;;18.40;99.90;;;;;;4995901;28;20183;-67
2021/08/05 06:55:19;;;;;;;6.45;3.58;;;18.50;99.90;;;;;;4999805;28;20635;-68
2021/08/05 06:57:45;;;;;;;4.95;3.90;;;18.60;99.90;;;;;;4990664;28;20662;-69
2021/08/05 07:00:11;;;;;;;4.07;3.50;;;18.70;99.90;;;;;;4993188;28;20188;-71
2021/08/05 07:02:37;;;;;;;3.38;3.08;;;18.80;99.90;;;;;;4988998;28;20199;-69
2021/08/05 07:05:04;;;;;;;7.10;3.80;;;19.00;99.90;;;;;;4992915;28;20183;-69
2021/08/05 07:07:30;;;;;;;3.80;3.38;;;19.20;99.90;;;;;;4997089;28;20255;-70
2021/08/05 07:09:57;;;;;;;3.92;3.53;;;19.30;99.90;;;;;;4993508;28;20271;-68
2021/08/05 07:12:23;;;;;;;3.88;3.50;;;19.40;99.90;;;;;;4987610;28;20944;-69
2021/08/05 07:14:48;;;;;;;4.13;3.55;;;19.20;99.90;;;;;;4993146;28;20196;-67
2021/08/05 07:17:15;;;;;;;4.65;3.85;;;19.20;99.90;;;;;;4979967;28;20254;-67
2021/08/05 07:19:42;;;;;;;4.78;4.03;;;19.30;99.90;;;;;;4994840;28;20283;-69
2021/08/05 07:22:08;;;;;;;4.13;3.72;;;19.20;99.90;;;;;;4991689;28;20656;-68
2021/08/05 07:24:34;;;;;;;4.50;4.10;;;19.20;99.90;;;;;;4992031;28;20184;-68
2021/08/05 07:27:00;;;;;;;5.03;3.83;;;19.20;99.90;;;;;;4998056;28;20553;-70
2021/08/05 07:29:25;;;;;;;4.88;4.10;;;19.20;99.90;;;;;;4992057;28;20207;-69
2021/08/05 07:31:51;;;;;;;4.00;3.60;;;19.30;99.90;;;;;;4992170;28;20667;-68
2021/08/05 07:34:17;;;;;;;4.95;3.72;;;19.40;99.90;;;;;;5000655;28;20519;-67
2021/08/05 07:36:42;;;;;;;4.57;3.65;;;19.60;99.90;;;;;;4987716;28;20212;-69
2021/08/05 07:39:11;;;;;;;3.97;3.55;;;19.70;99.90;;;;;;4999917;28;20234;-67
2021/08/05 07:41:38;;;;;;;5.10;4.60;;;20.00;99.90;;;;;;4992795;28;20278;-70
2021/08/05 07:44:08;;;;;;;4.45;3.40;;;20.30;99.90;;;;;;4992836;28;20203;-66
2021/08/05 07:46:34;;;;;;;3.70;3.38;;;20.40;99.90;;;;;;4995255;28;20246;-69
2021/08/05 07:48:59;;;;;;;3.92;3.38;;;20.60;99.90;;;;;;4993551;28;20180;-67
2021/08/05 07:51:26;;;;;;;3.42;3.13;;;20.80;99.90;;;;;;4993947;28;20183;-69
2021/08/05 07:53:52;;;;;;;4.35;3.20;;;21.10;99.90;;;;;;4995796;28;20264;-68
2021/08/05 07:56:21;;;;;;;3.97;3.15;;;21.20;99.90;;;;;;4995319;28;20295;-68
2021/08/05 07:58:47;;;;;;;3.40;3.10;;;21.30;99.90;;;;;;4995482;28;20302;-68
2021/08/05 08:01:13;;;;;;;3.25;2.95;;;21.60;99.90;;;;;;4998119;28;21197;-69
2021/08/05 08:03:39;;;;;;;3.20;2.90;;;21.60;99.90;;;;;;4994705;28;20272;-67
2021/08/05 08:06:04;;;;;;;3.10;2.80;;;21.50;99.90;;;;;;4992918;28;21180;-68
2021/08/05 08:08:30;;;;;;;3.03;2.72;;;21.80;99.90;;;;;;4988348;28;20239;-66
2021/08/05 08:10:56;;;;;;;2.70;2.50;;;22.10;99.90;;;;;;4999730;28;20192;-66
2021/08/05 08:13:21;;;;;;;3.47;3.15;;;22.10;99.90;;;;;;4973960;28;20226;-68
2021/08/05 08:15:47;;;;;;;3.20;2.90;;;22.40;99.90;;;;;;4994785;28;20215;-67
2021/08/05 08:18:13;;;;;;;2.97;2.78;;;22.20;99.90;;;;;;4995496;28;20191;-65
2021/08/05 08:20:39;;;;;;;2.95;2.28;;;22.10;99.90;;;;;;4993619;28;20628;-69
2021/08/05 08:23:05;;;;;;;4.85;3.35;;;22.30;99.90;;;;;;4993912;28;20176;-68
2021/08/05 08:25:32;;;;;;;5.55;3.33;;;22.40;99.90;;;;;;4992451;28;20211;-67
2021/08/05 08:27:58;;;;;;;6.28;2.10;;;22.60;99.90;;;;;;4994061;28;20230;-67
2021/08/05 08:30:24;;;;;;;6.70;2.40;;;22.70;99.90;;;;;;4992714;28;20177;-67
2021/08/05 08:32:50;;;;;;;12.85;2.65;;;22.90;99.90;;;;;;4992089;28;20245;-66
2021/08/05 08:35:16;;;;;;;2.92;2.25;;;22.80;99.90;;;;;;4972813;28;20184;-67
2021/08/05 08:37:42;;;;;;;7.30;3.22;;;22.90;99.90;;;;;;4981532;28;20180;-67
2021/08/05 08:40:09;;;;;;;8.40;2.67;;;23.10;99.90;;;;;;4991340;28;20257;-67
2021/08/05 08:42:34;;;;;;;3.97;2.53;;;23.30;99.90;;;;;;4978946;28;20227;-68
2021/08/05 08:45:00;;;;;;;3.60;2.40;;;23.40;99.90;;;;;;4991463;28;20216;-68
2021/08/05 08:47:28;;;;;;;4.20;2.55;;;23.50;99.90;;;;;;4990363;28;20235;-68
2021/08/05 08:49:55;;;;;;;7.85;2.83;;;23.10;99.90;;;;;;4991905;28;20176;-67
2021/08/05 08:52:25;;;;;;;9.75;3.03;;;23.10;99.90;;;;;;4993229;28;20242;-67
2021/08/05 08:54:51;;;;;;;9.02;3.53;;;23.00;99.90;;;;;;4987391;28;20180;-68
2021/08/05 08:57:21;;;;;;;4.50;2.95;;;22.90;99.90;;;;;;4990834;28;20210;-66
2021/08/05 08:59:47;;;;;;;2.47;2.15;;;23.00;99.90;;;;;;4981752;28;20180;-67
2021/08/05 09:02:13;;;;;;;3.20;2.90;;;23.40;99.90;;;;;;4995486;28;20187;-67
2021/08/05 09:04:40;;;;;;;3.08;2.78;;;23.50;99.90;;;;;;4985402;28;20238;-68
2021/08/05 09:07:06;;;;;;;2.70;2.50;;;23.20;99.90;;;;;;4993205;28;20298;-68
2021/08/05 09:09:32;;;;;;;3.30;2.63;;;23.20;99.90;;;;;;4992195;28;20321;-71
2021/08/05 09:11:59;;;;;;;3.97;2.70;;;23.30;99.90;;;;;;4985701;28;20287;-67
2021/08/05 09:14:49;;;;;;;3.40;2.55;;;23.30;99.90;;;;;;4991291;28;20229;-67
2021/08/05 09:17:25;;;;;;;2.38;2.20;;;23.50;99.90;;;;;;4986644;28;20200;-70
2021/08/05 09:19:54;;;;;;;2.60;2.38;;;23.60;99.90;;;;;;4999379;28;20184;-67
2021/08/05 09:22:40;;;;;;;2.83;2.55;;;23.60;99.90;;;;;;4999074;28;20184;-67
2021/08/05 09:25:17;;;;;;;2.92;2.63;;;23.60;99.90;;;;;;4992454;28;20184;-70
2021/08/05 09:27:45;;;;;;;7.72;2.60;;;23.80;99.90;;;;;;4985677;28;20254;-69
2021/08/05 09:30:11;;;;;;;3.10;2.70;;;23.90;99.90;;;;;;4991317;28;20176;-67
2021/08/05 09:32:36;;;;;;;2.70;2.50;;;23.90;99.90;;;;;;4990883;28;20184;-68
2021/08/05 09:35:10;;;;;;;3.05;2.40;;;24.10;99.90;;;;;;4984254;28;20184;-69
2021/08/05 09:37:40;;;;;;;2.95;2.17;;;24.40;99.90;;;;;;4985540;28;20271;-67
2021/08/05 09:40:14;;;;;;;2.47;1.77;;;24.50;99.90;;;;;;4987882;28;20186;-72
2021/08/05 09:42:40;;;;;;;2.35;2.15;;;24.50;99.90;;;;;;4993541;28;20237;-69
2021/08/05 09:45:07;;;;;;;1.95;1.83;;;24.50;99.90;;;;;;4988531;28;20220;-70
2021/08/05 09:47:44;;;;;;;2.33;2.00;;;24.50;99.90;;;;;;4985856;28;20349;-67
2021/08/05 09:50:11;;;;;;;1.95;1.80;;;24.60;99.90;;;;;;4985781;28;20326;-68
2021/08/05 09:52:37;;;;;;;2.17;1.98;;;24.70;99.90;;;;;;4986989;28;20230;-67
2021/08/05 09:55:06;;;;;;;2.50;1.75;;;24.70;99.90;;;;;;4983849;28;20183;-67
2021/08/05 09:57:33;;;;;;;1.55;1.45;;;24.90;99.90;;;;;;4990039;28;20211;-67
2021/08/05 10:00:06;;;;;;;2.17;1.98;;;24.90;99.90;;;;;;4988024;28;20604;-69
2021/08/05 10:02:48;;;;;;;1.70;1.60;;;25.00;99.90;;;;;;4987759;28;20342;-69
2021/08/05 10:05:19;;;;;;;2.05;1.70;;;24.70;99.90;;;;;;4975571;28;20274;-70
2021/08/05 10:07:52;;;;;;;1.95;1.80;;;24.70;99.90;;;;;;4988652;28;20643;-67
2021/08/05 10:10:21;;;;;;;1.75;1.65;;;24.70;99.90;;;;;;4989894;28;20230;-68
2021/08/05 10:12:55;;;;;;;1.52;1.33;;;25.00;99.90;;;;;;4991581;28;20502;-68
2021/08/05 10:15:21;;;;;;;2.33;1.90;;;25.20;99.90;;;;;;4984936;28;20180;-67
2021/08/05 10:18:01;;;;;;;1.60;1.48;;;25.30;99.90;;;;;;4993043;28;20258;-67
2021/08/05 10:20:29;;;;;;;1.35;1.20;;;25.60;99.90;;;;;;4998398;28;20262;-68
2021/08/05 10:22:57;;;;;;;0.88;0.80;;;25.80;99.90;;;;;;4977393;28;20212;-69
2021/08/05 10:25:26;;;;;;;1.33;1.15;;;26.00;99.90;;;;;;4992504;28;20312;-67
2021/08/05 10:27:53;;;;;;;1.15;1.08;;;26.00;99.90;;;;;;4993257;28;20593;-67
2021/08/05 10:30:18;;;;;;;1.20;1.10;;;26.30;99.90;;;;;;4993885;28;20270;-69
2021/08/05 10:32:48;;;;;;;1.33;1.13;;;26.70;99.90;;;;;;4975255;28;20200;-69
2021/08/05 10:35:15;;;;;;;0.98;0.88;;;26.70;99.90;;;;;;4992144;28;20191;-69
2021/08/05 10:37:41;;;;;;;1.00;0.93;;;26.60;99.90;;;;;;4991248;28;20687;-69
2021/08/05 10:40:09;;;;;;;1.20;1.10;;;26.60;99.90;;;;;;4997329;28;20635;-71
2021/08/05 10:42:35;;;;;;;1.42;1.33;;;26.70;99.90;;;;;;4997330;28;20197;-69
2021/08/05 10:45:02;;;;;;;1.33;1.23;;;26.60;99.90;;;;;;4997397;28;21016;-68
2021/08/05 10:47:29;;;;;;;1.00;0.90;;;26.40;99.90;;;;;;4998561;28;20223;-68
2021/08/05 10:50:02;;;;;;;1.20;1.10;;;26.00;99.90;;;;;;4996199;28;20574;-69
2021/08/05 10:52:34;;;;;;;1.10;1.00;;;26.10;99.90;;;;;;4991765;28;20180;-68
2021/08/05 10:55:22;;;;;;;1.90;1.10;;;26.40;99.90;;;;;;4994002;28;20190;-66
2021/08/05 10:58:07;;;;;;;0.80;0.80;;;26.60;99.90;;;;;;4998173;28;20192;-69
2021/08/05 11:01:01;;;;;;;1.27;1.10;;;26.80;99.90;;;;;;4999259;28;20662;-68
2021/08/05 11:03:32;;;;;;;1.05;1.00;;;26.40;99.90;;;;;;4987148;28;20515;-70
2021/08/05 11:05:59;;;;;;;1.10;1.00;;;26.60;99.90;;;;;;4995950;28;20247;-69
2021/08/05 11:08:27;;;;;;;1.08;0.98;;;26.30;99.90;;;;;;4994389;28;20235;-67
2021/08/05 11:11:21;;;;;;;1.27;0.98;;;26.40;99.90;;;;;;4997784;28;20176;-69
2021/08/05 11:14:07;;;;;;;1.30;1.10;;;26.40;99.90;;;;;;5001218;28;20255;-68
2021/08/05 11:16:50;;;;;;;1.38;1.27;;;25.90;99.90;;;;;;4955850;28;20234;-67
2021/08/05 11:19:22;;;;;;;1.38;1.27;;;26.00;99.90;;;;;;4990280;28;21112;-66
2021/08/05 11:21:48;;;;;;;1.33;1.23;;;26.30;99.90;;;;;;4993389;28;20187;-65
2021/08/05 11:24:39;;;;;;;1.40;1.30;;;26.50;99.90;;;;;;5000017;28;20184;-66
2021/08/05 11:27:10;;;;;;;1.00;1.00;;;26.30;99.90;;;;;;4988230;28;20219;-65
2021/08/05 11:29:38;;;;;;;1.50;1.38;;;26.10;99.90;;;;;;4997880;28;20254;-66
2021/08/05 11:32:27;;;;;;;1.77;1.50;;;26.10;99.90;;;;;;4980453;28;20207;-67
2021/08/05 11:34:57;;;;;;;1.60;1.50;;;26.00;99.90;;;;;;4991540;28;20610;-68
2021/08/05 11:37:23;;;;;;;1.52;1.42;;;26.00;99.90;;;;;;4987207;28;20239;-68
2021/08/05 11:39:54;;;;;;;3.78;1.95;;;25.70;99.90;;;;;;4991105;28;20242;-69
2021/08/05 11:42:25;;;;;;;1.80;1.70;;;25.70;99.90;;;;;;4999311;28;20199;-67
2021/08/05 11:44:56;;;;;;;1.92;1.73;;;25.80;99.90;;;;;;4996070;28;20192;-69
2021/08/05 11:47:42;;;;;;;2.08;1.98;;;26.00;99.90;;;;;;4994190;28;20208;-68
2021/08/05 11:50:16;;;;;;;2.10;1.90;;;26.20;99.90;;;;;;4990035;28;20319;-69
2021/08/05 11:52:43;;;;;;;2.17;1.98;;;26.30;99.90;;;;;;4975397;28;20802;-68
2021/08/05 11:55:20;;;;;;;1.73;1.63;;;26.50;99.90;;;;;;5000997;28;20188;-67
2021/08/05 11:57:59;;;;;;;2.05;1.92;;;26.60;99.90;;;;;;4994635;28;20246;-68
2021/08/05 12:00:25;;;;;;;2.28;2.10;;;26.50;99.90;;;;;;4994211;28;20187;-68
2021/08/05 12:02:53;;;;;;;1.83;1.73;;;26.30;99.90;;;;;;4996933;28;20188;-69
2021/08/05 12:05:25;;;;;;;2.50;1.70;;;25.90;99.90;;;;;;4987579;28;20188;-69
2021/08/05 12:07:51;;;;;;;2.22;2.00;;;25.40;99.90;;;;;;4994226;28;20176;-69
2021/08/05 12:10:30;;;;;;;2.35;2.00;;;25.30;99.90;;;;;;4996859;28;20559;-69
2021/08/05 12:13:16;;;;;;;2.30;2.10;;;25.50;99.90;;;;;;4995349;28;20233;-67
2021/08/05 12:15:53;;;;;;;3.25;1.83;;;25.60;99.90;;;;;;4985210;28;20241;-67
2021/08/05 12:18:20;;;;;;;2.63;2.08;;;25.80;99.90;;;;;;4982951;28;20229;-70
2021/08/05 12:20:54;;;;;;;2.38;2.17;;;26.10;99.90;;;;;;4997005;28;20181;-67
2021/08/05 12:23:32;;;;;;;2.10;2.00;;;26.30;99.90;;;;;;4976052;28;20185;-67
2021/08/05 12:28:25;;;;;;;2.72;2.00;;;25.80;99.90;;;;;;4985853;28;20198;-70
2021/08/05 12:30:53;;;;;;;2.50;2.30;;;25.80;99.90;;;;;;4991824;28;20204;-67
2021/08/05 12:33:31;;;;;;;2.55;2.35;;;25.90;99.90;;;;;;5000637;28;20222;-69
2021/08/05 12:36:21;;;;;;;2.60;2.40;;;26.30;99.90;;;;;;4996396;28;20548;-67
2021/08/05 12:38:54;;;;;;;3.47;2.70;;;26.50;99.90;;;;;;4989803;28;20279;-68
2021/08/05 12:41:41;;;;;;;2.90;2.53;;;26.30;99.90;;;;;;4991671;28;20698;-68
2021/08/05 12:44:18;;;;;;;3.05;2.72;;;26.40;99.90;;;;;;4993778;28;20193;-68
2021/08/05 12:46:46;;;;;;;2.85;2.65;;;26.00;99.90;;;;;;4988461;28;20243;-67
2021/08/05 12:49:12;;;;;;;2.13;2.03;;;25.40;99.90;;;;;;4988469;28;20200;-69
2021/08/05 12:51:38;;;;;;;2.50;2.30;;;25.10;99.90;;;;;;4991453;28;20266;-68
2021/08/05 12:54:21;;;;;;;2.70;2.50;;;25.20;99.90;;;;;;4991480;28;20275;-69
2021/08/05 12:56:51;;;;;;;2.92;2.70;;;24.90;99.90;;;;;;4990695;28;20200;-68